Platteville, Iowa
Current Conditions -  °F | °C
As of 12:35 PM on Monday 26 Jan 2015 (Local Time) from KCSQ Reporting Station
Clear Clear  
Wind Chill: 41°   Ceiling: Unl
Heat Index: 48°   Visibility: 10mi
Dew Point: 37°   Wind: 22mph
Humidity: 66%   Direction: 320°NW
Pressure: 29.85"   Gusts: NA
Location:  40.6485°N, 94.5286°W
Report Text: KCSQ 261835Z AUTO 32019KT 10SM CLR 09/03 A2985 RMK AO2
Loading
Personal Weather Stations






























Interactive Weather Map New forecast layout! Learn more

10-Day Weather Forecast

Advertisements
Track Severe Weather on mobile